sensor_id;sensor_type;location;lat;lon;timestamp;P1;durP1;ratioP1;P2;durP2;ratioP2
84140;SDS011;74257;52.540;13.416;2024-03-22T00:01:09;3.92;;;2.42;;
84140;SDS011;74257;52.540;13.416;2024-03-22T00:03:41;4.20;;;2.10;;
84140;SDS011;74257;52.540;13.416;2024-03-22T00:06:08;5.03;;;2.50;;
84140;SDS011;74257;52.540;13.416;2024-03-22T00:08:33;3.85;;;2.00;;
84140;SDS011;74257;52.540;13.416;2024-03-22T00:10:59;5.32;;;1.98;;
84140;SDS011;74257;52.540;13.416;2024-03-22T00:13:25;3.10;;;2.13;;
84140;SDS011;74257;52.540;13.416;2024-03-22T00:15:50;6.00;;;2.30;;
84140;SDS011;74257;52.540;13.416;2024-03-22T00:18:16;4.07;;;2.05;;
84140;SDS011;74257;52.540;13.416;2024-03-22T00:20:42;4.10;;;2.17;;
84140;SDS011;74257;52.540;13.416;2024-03-22T00:23:07;4.63;;;1.90;;
84140;SDS011;74257;52.540;13.416;2024-03-22T00:25:33;2.28;;;1.63;;
84140;SDS011;74257;52.540;13.416;2024-03-22T00:27:59;2.88;;;1.85;;
84140;SDS011;74257;52.540;13.416;2024-03-22T00:30:25;3.17;;;1.70;;
84140;SDS011;74257;52.540;13.416;2024-03-22T00:32:50;4.63;;;2.00;;
84140;SDS011;74257;52.540;13.416;2024-03-22T00:35:16;3.28;;;1.83;;
84140;SDS011;74257;52.540;13.416;2024-03-22T00:37:42;3.33;;;1.73;;
84140;SDS011;74257;52.540;13.416;2024-03-22T00:40:08;4.25;;;1.90;;
84140;SDS011;74257;52.540;13.416;2024-03-22T00:42:34;2.65;;;1.77;;
84140;SDS011;74257;52.540;13.416;2024-03-22T00:45:01;4.63;;;1.92;;
84140;SDS011;74257;52.540;13.416;2024-03-22T00:47:26;3.05;;;1.67;;
84140;SDS011;74257;52.540;13.416;2024-03-22T00:49:52;4.15;;;2.15;;
84140;SDS011;74257;52.540;13.416;2024-03-22T00:52:18;3.10;;;1.73;;
84140;SDS011;74257;52.540;13.416;2024-03-22T00:54:43;4.93;;;1.85;;
84140;SDS011;74257;52.540;13.416;2024-03-22T00:57:09;4.10;;;1.90;;
84140;SDS011;74257;52.540;13.416;2024-03-22T00:59:35;3.33;;;2.28;;
84140;SDS011;74257;52.540;13.416;2024-03-22T01:02:01;2.70;;;1.83;;
84140;SDS011;74257;52.540;13.416;2024-03-22T01:04:26;3.15;;;1.90;;
84140;SDS011;74257;52.540;13.416;2024-03-22T01:06:52;4.05;;;2.00;;
84140;SDS011;74257;52.540;13.416;2024-03-22T01:09:18;5.75;;;2.40;;
84140;SDS011;74257;52.540;13.416;2024-03-22T01:11:44;2.85;;;1.70;;
84140;SDS011;74257;52.540;13.416;2024-03-22T01:14:10;4.55;;;1.90;;
84140;SDS011;74257;52.540;13.416;2024-03-22T01:16:36;4.22;;;1.98;;
84140;SDS011;74257;52.540;13.416;2024-03-22T01:19:02;2.90;;;1.80;;
84140;SDS011;74257;52.540;13.416;2024-03-22T01:21:27;2.88;;;1.80;;
84140;SDS011;74257;52.540;13.416;2024-03-22T01:23:53;3.53;;;1.90;;
84140;SDS011;74257;52.540;13.416;2024-03-22T01:26:19;3.13;;;1.52;;
84140;SDS011;74257;52.540;13.416;2024-03-22T01:28:46;3.28;;;1.90;;
84140;SDS011;74257;52.540;13.416;2024-03-22T01:31:11;3.13;;;1.80;;
84140;SDS011;74257;52.540;13.416;2024-03-22T01:33:37;2.90;;;1.90;;
84140;SDS011;74257;52.540;13.416;2024-03-22T01:36:03;2.58;;;1.80;;
84140;SDS011;74257;52.540;13.416;2024-03-22T01:38:31;2.95;;;1.52;;
84140;SDS011;74257;52.540;13.416;2024-03-22T01:40:56;2.17;;;1.42;;
84140;SDS011;74257;52.540;13.416;2024-03-22T01:43:22;2.85;;;1.85;;
84140;SDS011;74257;52.540;13.416;2024-03-22T01:45:48;2.95;;;1.80;;
84140;SDS011;74257;52.540;13.416;2024-03-22T01:48:14;3.63;;;1.90;;
84140;SDS011;74257;52.540;13.416;2024-03-22T01:50:40;2.78;;;1.80;;
84140;SDS011;74257;52.540;13.416;2024-03-22T01:53:07;2.58;;;1.80;;
84140;SDS011;74257;52.540;13.416;2024-03-22T01:55:33;3.97;;;1.80;;
84140;SDS011;74257;52.540;13.416;2024-03-22T01:57:59;3.58;;;1.90;;
84140;SDS011;74257;52.540;13.416;2024-03-22T02:00:25;3.20;;;2.03;;
84140;SDS011;74257;52.540;13.416;2024-03-22T02:02:51;3.78;;;1.83;;
84140;SDS011;74257;52.540;13.416;2024-03-22T02:05:16;3.90;;;1.63;;
84140;SDS011;74257;52.540;13.416;2024-03-22T02:07:47;3.95;;;1.90;;
84140;SDS011;74257;52.540;13.416;2024-03-22T02:10:13;4.13;;;2.03;;
84140;SDS011;74257;52.540;13.416;2024-03-22T02:12:39;3.63;;;1.60;;
84140;SDS011;74257;52.540;13.416;2024-03-22T02:15:06;4.50;;;2.10;;
84140;SDS011;74257;52.540;13.416;2024-03-22T02:17:34;3.92;;;1.90;;
84140;SDS011;74257;52.540;13.416;2024-03-22T02:20:00;4.38;;;2.00;;
84140;SDS011;74257;52.540;13.416;2024-03-22T02:22:27;2.28;;;1.58;;
84140;SDS011;74257;52.540;13.416;2024-03-22T02:24:53;2.35;;;1.40;;
84140;SDS011;74257;52.540;13.416;2024-03-22T02:27:19;2.30;;;1.70;;
84140;SDS011;74257;52.540;13.416;2024-03-22T02:29:45;2.10;;;1.45;;
84140;SDS011;74257;52.540;13.416;2024-03-22T02:32:10;2.83;;;1.70;;
84140;SDS011;74257;52.540;13.416;2024-03-22T02:34:36;3.05;;;1.92;;
84140;SDS011;74257;52.540;13.416;2024-03-22T02:37:02;2.55;;;1.50;;
84140;SDS011;74257;52.540;13.416;2024-03-22T02:39:28;3.35;;;1.83;;
84140;SDS011;74257;52.540;13.416;2024-03-22T02:41:54;4.32;;;1.90;;
84140;SDS011;74257;52.540;13.416;2024-03-22T02:44:21;4.10;;;1.90;;
84140;SDS011;74257;52.540;13.416;2024-03-22T02:46:47;3.53;;;1.77;;
84140;SDS011;74257;52.540;13.416;2024-03-22T02:49:12;2.38;;;1.52;;
84140;SDS011;74257;52.540;13.416;2024-03-22T02:51:38;2.75;;;1.70;;
84140;SDS011;74257;52.540;13.416;2024-03-22T02:54:04;3.22;;;1.73;;
84140;SDS011;74257;52.540;13.416;2024-03-22T02:56:30;2.80;;;1.70;;
84140;SDS011;74257;52.540;13.416;2024-03-22T02:58:56;2.75;;;1.65;;
84140;SDS011;74257;52.540;13.416;2024-03-22T03:01:22;2.50;;;1.70;;
84140;SDS011;74257;52.540;13.416;2024-03-22T03:03:47;2.75;;;1.50;;
84140;SDS011;74257;52.540;13.416;2024-03-22T03:06:13;2.75;;;1.85;;
84140;SDS011;74257;52.540;13.416;2024-03-22T03:08:40;2.67;;;1.85;;
84140;SDS011;74257;52.540;13.416;2024-03-22T03:11:06;2.88;;;1.77;;
84140;SDS011;74257;52.540;13.416;2024-03-22T03:13:32;4.78;;;2.03;;
84140;SDS011;74257;52.540;13.416;2024-03-22T03:15:57;3.58;;;1.80;;
84140;SDS011;74257;52.540;13.416;2024-03-22T03:18:23;2.70;;;1.70;;
84140;SDS011;74257;52.540;13.416;2024-03-22T03:20:49;3.42;;;1.80;;
84140;SDS011;74257;52.540;13.416;2024-03-22T03:23:15;3.38;;;1.70;;
84140;SDS011;74257;52.540;13.416;2024-03-22T03:25:41;3.92;;;1.80;;
84140;SDS011;74257;52.540;13.416;2024-03-22T03:28:06;4.25;;;1.75;;
84140;SDS011;74257;52.540;13.416;2024-03-22T03:30:33;3.22;;;1.88;;
84140;SDS011;74257;52.540;13.416;2024-03-22T03:33:00;2.35;;;1.70;;
84140;SDS011;74257;52.540;13.416;2024-03-22T03:35:26;2.72;;;1.67;;
84140;SDS011;74257;52.540;13.416;2024-03-22T03:37:52;4.43;;;1.70;;
84140;SDS011;74257;52.540;13.416;2024-03-22T03:40:18;2.85;;;1.80;;
84140;SDS011;74257;52.540;13.416;2024-03-22T03:42:44;2.85;;;1.77;;
84140;SDS011;74257;52.540;13.416;2024-03-22T03:45:10;3.03;;;1.50;;
84140;SDS011;74257;52.540;13.416;2024-03-22T03:47:35;2.90;;;1.67;;
84140;SDS011;74257;52.540;13.416;2024-03-22T03:50:01;2.75;;;1.90;;
84140;SDS011;74257;52.540;13.416;2024-03-22T03:52:27;2.40;;;1.60;;
84140;SDS011;74257;52.540;13.416;2024-03-22T03:54:53;2.80;;;1.67;;
84140;SDS011;74257;52.540;13.416;2024-03-22T03:57:18;2.70;;;1.67;;
84140;SDS011;74257;52.540;13.416;2024-03-22T03:59:44;3.58;;;2.00;;
84140;SDS011;74257;52.540;13.416;2024-03-22T04:02:10;2.50;;;1.75;;
84140;SDS011;74257;52.540;13.416;2024-03-22T04:04:36;3.00;;;1.70;;
84140;SDS011;74257;52.540;13.416;2024-03-22T04:07:02;3.50;;;1.83;;
84140;SDS011;74257;52.540;13.416;2024-03-22T04:09:28;2.70;;;1.90;;
84140;SDS011;74257;52.540;13.416;2024-03-22T04:11:54;2.72;;;1.70;;
84140;SDS011;74257;52.540;13.416;2024-03-22T04:14:19;3.13;;;1.90;;
84140;SDS011;74257;52.540;13.416;2024-03-22T04:16:45;2.88;;;1.75;;
84140;SDS011;74257;52.540;13.416;2024-03-22T04:19:11;3.17;;;1.90;;
84140;SDS011;74257;52.540;13.416;2024-03-22T04:21:36;2.75;;;1.75;;
84140;SDS011;74257;52.540;13.416;2024-03-22T04:24:02;3.42;;;1.90;;
84140;SDS011;74257;52.540;13.416;2024-03-22T04:26:28;2.78;;;1.63;;
84140;SDS011;74257;52.540;13.416;2024-03-22T04:28:54;2.03;;;1.60;;
84140;SDS011;74257;52.540;13.416;2024-03-22T04:31:20;3.78;;;1.77;;
84140;SDS011;74257;52.540;13.416;2024-03-22T04:33:46;2.80;;;1.70;;
84140;SDS011;74257;52.540;13.416;2024-03-22T04:36:11;3.83;;;2.00;;
84140;SDS011;74257;52.540;13.416;2024-03-22T04:38:38;2.85;;;1.73;;
84140;SDS011;74257;52.540;13.416;2024-03-22T04:41:03;2.40;;;1.80;;
84140;SDS011;74257;52.540;13.416;2024-03-22T04:43:29;3.78;;;1.80;;
84140;SDS011;74257;52.540;13.416;2024-03-22T04:45:55;2.70;;;1.90;;
84140;SDS011;74257;52.540;13.416;2024-03-22T04:48:21;2.63;;;1.70;;
84140;SDS011;74257;52.540;13.416;2024-03-22T04:50:47;2.25;;;1.70;;
84140;SDS011;74257;52.540;13.416;2024-03-22T04:53:15;2.60;;;1.67;;
84140;SDS011;74257;52.540;13.416;2024-03-22T04:55:42;2.40;;;1.70;;
84140;SDS011;74257;52.540;13.416;2024-03-22T04:58:13;2.83;;;1.75;;
84140;SDS011;74257;52.540;13.416;2024-03-22T05:00:40;2.95;;;1.73;;
84140;SDS011;74257;52.540;13.416;2024-03-22T05:03:08;1.77;;;1.50;;
84140;SDS011;74257;52.540;13.416;2024-03-22T05:05:34;2.08;;;1.70;;
84140;SDS011;74257;52.540;13.416;2024-03-22T05:08:01;2.08;;;1.80;;
84140;SDS011;74257;52.540;13.416;2024-03-22T05:10:28;2.40;;;1.70;;
84140;SDS011;74257;52.540;13.416;2024-03-22T05:12:55;2.58;;;2.00;;
84140;SDS011;74257;52.540;13.416;2024-03-22T05:15:21;2.38;;;1.65;;
84140;SDS011;74257;52.540;13.416;2024-03-22T05:17:47;2.50;;;1.90;;
84140;SDS011;74257;52.540;13.416;2024-03-22T05:20:13;2.60;;;1.70;;
84140;SDS011;74257;52.540;13.416;2024-03-22T05:22:39;2.45;;;1.65;;
84140;SDS011;74257;52.540;13.416;2024-03-22T05:25:05;2.53;;;1.80;;
84140;SDS011;74257;52.540;13.416;2024-03-22T05:27:31;2.50;;;1.70;;
84140;SDS011;74257;52.540;13.416;2024-03-22T05:29:58;2.55;;;1.88;;
84140;SDS011;74257;52.540;13.416;2024-03-22T05:32:24;2.30;;;1.70;;
84140;SDS011;74257;52.540;13.416;2024-03-22T05:34:51;2.90;;;1.60;;
84140;SDS011;74257;52.540;13.416;2024-03-22T05:37:17;2.22;;;1.63;;
84140;SDS011;74257;52.540;13.416;2024-03-22T05:39:42;2.00;;;1.48;;
84140;SDS011;74257;52.540;13.416;2024-03-22T05:42:08;1.92;;;1.42;;
84140;SDS011;74257;52.540;13.416;2024-03-22T05:44:34;2.45;;;1.80;;
84140;SDS011;74257;52.540;13.416;2024-03-22T05:47:00;2.83;;;1.80;;
84140;SDS011;74257;52.540;13.416;2024-03-22T05:49:26;4.28;;;1.90;;
84140;SDS011;74257;52.540;13.416;2024-03-22T05:51:52;3.35;;;1.83;;
84140;SDS011;74257;52.540;13.416;2024-03-22T05:54:18;2.92;;;1.70;;
84140;SDS011;74257;52.540;13.416;2024-03-22T05:56:44;2.47;;;1.60;;
84140;SDS011;74257;52.540;13.416;2024-03-22T05:59:09;2.25;;;1.50;;
84140;SDS011;74257;52.540;13.416;2024-03-22T06:01:36;2.40;;;1.70;;
84140;SDS011;74257;52.540;13.416;2024-03-22T06:04:03;2.65;;;1.70;;
84140;SDS011;74257;52.540;13.416;2024-03-22T06:06:33;2.22;;;1.60;;
84140;SDS011;74257;52.540;13.416;2024-03-22T06:09:00;1.95;;;1.67;;
84140;SDS011;74257;52.540;13.416;2024-03-22T06:11:30;2.58;;;1.70;;
84140;SDS011;74257;52.540;13.416;2024-03-22T06:13:55;2.20;;;1.50;;
84140;SDS011;74257;52.540;13.416;2024-03-22T06:16:21;2.40;;;1.60;;
84140;SDS011;74257;52.540;13.416;2024-03-22T06:18:47;2.80;;;1.80;;
84140;SDS011;74257;52.540;13.416;2024-03-22T06:21:13;2.22;;;1.80;;
84140;SDS011;74257;52.540;13.416;2024-03-22T06:23:50;2.05;;;1.65;;
84140;SDS011;74257;52.540;13.416;2024-03-22T06:26:16;2.40;;;1.65;;
84140;SDS011;74257;52.540;13.416;2024-03-22T06:28:42;2.33;;;1.70;;
84140;SDS011;74257;52.540;13.416;2024-03-22T06:31:08;2.38;;;1.73;;
84140;SDS011;74257;52.540;13.416;2024-03-22T06:33:34;2.13;;;1.45;;
84140;SDS011;74257;52.540;13.416;2024-03-22T06:36:02;2.88;;;2.00;;
84140;SDS011;74257;52.540;13.416;2024-03-22T06:38:28;2.60;;;1.60;;
84140;SDS011;74257;52.540;13.416;2024-03-22T06:40:54;3.53;;;2.00;;
84140;SDS011;74257;52.540;13.416;2024-03-22T06:43:20;2.70;;;1.77;;
84140;SDS011;74257;52.540;13.416;2024-03-22T06:45:46;2.35;;;1.75;;
84140;SDS011;74257;52.540;13.416;2024-03-22T06:48:11;3.42;;;2.00;;
84140;SDS011;74257;52.540;13.416;2024-03-22T06:50:37;2.83;;;1.60;;
84140;SDS011;74257;52.540;13.416;2024-03-22T06:53:03;2.92;;;2.00;;
84140;SDS011;74257;52.540;13.416;2024-03-22T06:55:29;3.03;;;1.80;;
84140;SDS011;74257;52.540;13.416;2024-03-22T06:57:55;1.98;;;1.60;;
84140;SDS011;74257;52.540;13.416;2024-03-22T07:00:21;2.35;;;1.50;;
84140;SDS011;74257;52.540;13.416;2024-03-22T07:02:46;2.35;;;1.65;;
84140;SDS011;74257;52.540;13.416;2024-03-22T07:05:12;2.42;;;1.67;;
84140;SDS011;74257;52.540;13.416;2024-03-22T07:07:38;2.35;;;1.60;;
84140;SDS011;74257;52.540;13.416;2024-03-22T07:10:04;2.20;;;1.70;;
84140;SDS011;74257;52.540;13.416;2024-03-22T07:12:33;2.38;;;1.75;;
84140;SDS011;74257;52.540;13.416;2024-03-22T07:14:59;2.33;;;1.80;;
84140;SDS011;74257;52.540;13.416;2024-03-22T07:17:26;3.13;;;1.80;;
84140;SDS011;74257;52.540;13.416;2024-03-22T07:19:52;2.60;;;1.70;;
84140;SDS011;74257;52.540;13.416;2024-03-22T07:22:18;3.25;;;1.73;;
84140;SDS011;74257;52.540;13.416;2024-03-22T07:24:45;3.05;;;1.88;;
84140;SDS011;74257;52.540;13.416;2024-03-22T07:27:10;3.72;;;1.88;;
84140;SDS011;74257;52.540;13.416;2024-03-22T07:29:36;2.60;;;1.88;;
84140;SDS011;74257;52.540;13.416;2024-03-22T07:32:03;2.65;;;1.88;;
84140;SDS011;74257;52.540;13.416;2024-03-22T07:34:29;2.58;;;1.70;;
84140;SDS011;74257;52.540;13.416;2024-03-22T07:36:55;2.30;;;1.58;;
84140;SDS011;74257;52.540;13.416;2024-03-22T07:39:21;3.40;;;1.73;;
84140;SDS011;74257;52.540;13.416;2024-03-22T07:41:46;3.25;;;1.80;;
84140;SDS011;74257;52.540;13.416;2024-03-22T07:44:12;4.65;;;1.70;;
84140;SDS011;74257;52.540;13.416;2024-03-22T07:46:38;8.23;;;2.30;;
84140;SDS011;74257;52.540;13.416;2024-03-22T07:49:04;4.45;;;1.90;;
84140;SDS011;74257;52.540;13.416;2024-03-22T07:51:30;4.07;;;1.85;;
84140;SDS011;74257;52.540;13.416;2024-03-22T07:53:56;2.92;;;2.10;;
84140;SDS011;74257;52.540;13.416;2024-03-22T07:56:21;4.93;;;1.98;;
84140;SDS011;74257;52.540;13.416;2024-03-22T07:58:47;2.33;;;1.63;;
84140;SDS011;74257;52.540;13.416;2024-03-22T08:01:13;6.40;;;2.03;;
84140;SDS011;74257;52.540;13.416;2024-03-22T08:03:39;8.38;;;2.50;;
84140;SDS011;74257;52.540;13.416;2024-03-22T08:06:04;6.28;;;3.33;;
84140;SDS011;74257;52.540;13.416;2024-03-22T08:08:30;5.22;;;3.70;;
84140;SDS011;74257;52.540;13.416;2024-03-22T08:10:56;10.50;;;3.90;;
84140;SDS011;74257;52.540;13.416;2024-03-22T08:13:22;6.20;;;3.35;;
84140;SDS011;74257;52.540;13.416;2024-03-22T08:15:48;7.70;;;3.70;;
84140;SDS011;74257;52.540;13.416;2024-03-22T08:18:13;9.20;;;3.35;;
84140;SDS011;74257;52.540;13.416;2024-03-22T08:20:39;4.18;;;3.25;;
84140;SDS011;74257;52.540;13.416;2024-03-22T08:23:05;5.50;;;3.40;;
84140;SDS011;74257;52.540;13.416;2024-03-22T08:25:31;6.45;;;3.92;;
84140;SDS011;74257;52.540;13.416;2024-03-22T08:27:57;6.40;;;3.28;;
84140;SDS011;74257;52.540;13.416;2024-03-22T08:30:23;4.45;;;3.03;;
84140;SDS011;74257;52.540;13.416;2024-03-22T08:32:50;4.47;;;2.92;;
84140;SDS011;74257;52.540;13.416;2024-03-22T08:35:19;5.70;;;3.47;;
84140;SDS011;74257;52.540;13.416;2024-03-22T08:37:45;7.22;;;3.10;;
84140;SDS011;74257;52.540;13.416;2024-03-22T08:40:11;7.72;;;3.03;;
84140;SDS011;74257;52.540;13.416;2024-03-22T08:42:39;11.25;;;3.65;;
84140;SDS011;74257;52.540;13.416;2024-03-22T08:45:05;16.02;;;4.35;;
84140;SDS011;74257;52.540;13.416;2024-03-22T08:47:31;17.10;;;4.68;;
84140;SDS011;74257;52.540;13.416;2024-03-22T08:49:58;6.20;;;3.10;;
84140;SDS011;74257;52.540;13.416;2024-03-22T08:52:25;9.50;;;3.20;;
84140;SDS011;74257;52.540;13.416;2024-03-22T08:54:51;8.90;;;3.25;;
84140;SDS011;74257;52.540;13.416;2024-03-22T08:59:45;11.43;;;3.15;;
84140;SDS011;74257;52.540;13.416;2024-03-22T09:02:11;8.88;;;3.28;;
84140;SDS011;74257;52.540;13.416;2024-03-22T09:04:37;9.82;;;3.05;;
84140;SDS011;74257;52.540;13.416;2024-03-22T09:07:03;8.50;;;3.45;;
84140;SDS011;74257;52.540;13.416;2024-03-22T09:09:29;9.75;;;3.20;;
84140;SDS011;74257;52.540;13.416;2024-03-22T09:11:55;10.57;;;3.47;;
84140;SDS011;74257;52.540;13.416;2024-03-22T09:14:21;9.68;;;3.88;;
84140;SDS011;74257;52.540;13.416;2024-03-22T09:16:46;8.55;;;3.53;;
84140;SDS011;74257;52.540;13.416;2024-03-22T09:19:12;11.02;;;3.78;;
84140;SDS011;74257;52.540;13.416;2024-03-22T09:21:38;11.13;;;3.50;;
84140;SDS011;74257;52.540;13.416;2024-03-22T09:24:04;11.05;;;4.28;;
84140;SDS011;74257;52.540;13.416;2024-03-22T09:26:30;9.85;;;3.63;;
84140;SDS011;74257;52.540;13.416;2024-03-22T09:28:57;8.98;;;3.70;;
84140;SDS011;74257;52.540;13.416;2024-03-22T09:31:22;7.47;;;3.67;;
84140;SDS011;74257;52.540;13.416;2024-03-22T09:33:48;12.52;;;3.70;;
84140;SDS011;74257;52.540;13.416;2024-03-22T09:36:14;23.23;;;3.95;;
84140;SDS011;74257;52.540;13.416;2024-03-22T09:38:40;16.27;;;3.92;;
84140;SDS011;74257;52.540;13.416;2024-03-22T09:41:06;12.20;;;4.40;;
84140;SDS011;74257;52.540;13.416;2024-03-22T09:43:32;16.00;;;3.90;;
84140;SDS011;74257;52.540;13.416;2024-03-22T09:46:00;10.10;;;4.00;;
84140;SDS011;74257;52.540;13.416;2024-03-22T09:48:27;11.00;;;3.40;;
84140;SDS011;74257;52.540;13.416;2024-03-22T09:50:54;9.57;;;4.05;;
84140;SDS011;74257;52.540;13.416;2024-03-22T09:53:20;13.45;;;3.80;;
84140;SDS011;74257;52.540;13.416;2024-03-22T09:55:48;12.18;;;3.88;;
84140;SDS011;74257;52.540;13.416;2024-03-22T09:58:15;12.38;;;3.65;;
84140;SDS011;74257;52.540;13.416;2024-03-22T10:00:44;9.43;;;4.07;;
84140;SDS011;74257;52.540;13.416;2024-03-22T10:03:10;14.27;;;3.78;;
84140;SDS011;74257;52.540;13.416;2024-03-22T10:05:36;13.65;;;4.10;;
84140;SDS011;74257;52.540;13.416;2024-03-22T10:08:02;9.13;;;3.45;;
84140;SDS011;74257;52.540;13.416;2024-03-22T10:12:57;9.15;;;3.90;;
84140;SDS011;74257;52.540;13.416;2024-03-22T10:15:23;9.25;;;3.90;;
84140;SDS011;74257;52.540;13.416;2024-03-22T10:17:49;8.20;;;3.20;;
84140;SDS011;74257;52.540;13.416;2024-03-22T10:20:15;9.85;;;3.50;;
84140;SDS011;74257;52.540;13.416;2024-03-22T10:22:57;10.02;;;3.15;;
84140;SDS011;74257;52.540;13.416;2024-03-22T10:25:25;13.38;;;4.25;;
84140;SDS011;74257;52.540;13.416;2024-03-22T10:27:53;8.27;;;3.40;;
84140;SDS011;74257;52.540;13.416;2024-03-22T10:30:19;9.63;;;3.88;;
84140;SDS011;74257;52.540;13.416;2024-03-22T10:32:46;14.32;;;4.38;;
84140;SDS011;74257;52.540;13.416;2024-03-22T10:35:14;21.23;;;6.63;;
84140;SDS011;74257;52.540;13.416;2024-03-22T10:37:40;15.60;;;6.38;;
84140;SDS011;74257;52.540;13.416;2024-03-22T10:40:07;16.45;;;7.35;;
84140;SDS011;74257;52.540;13.416;2024-03-22T10:42:38;12.60;;;6.28;;
84140;SDS011;74257;52.540;13.416;2024-03-22T10:45:05;12.07;;;5.90;;
84140;SDS011;74257;52.540;13.416;2024-03-22T10:47:32;13.90;;;6.05;;
84140;SDS011;74257;52.540;13.416;2024-03-22T10:55:24;12.73;;;6.20;;
84140;SDS011;74257;52.540;13.416;2024-03-22T10:57:57;12.77;;;6.00;;
84140;SDS011;74257;52.540;13.416;2024-03-22T11:00:27;11.63;;;5.90;;
84140;SDS011;74257;52.540;13.416;2024-03-22T11:02:55;12.27;;;5.75;;
84140;SDS011;74257;52.540;13.416;2024-03-22T11:05:21;13.30;;;5.30;;
84140;SDS011;74257;52.540;13.416;2024-03-22T11:07:46;12.48;;;5.03;;
84140;SDS011;74257;52.540;13.416;2024-03-22T11:10:13;12.50;;;5.55;;
84140;SDS011;74257;52.540;13.416;2024-03-22T11:12:40;10.30;;;4.72;;
84140;SDS011;74257;52.540;13.416;2024-03-22T11:15:06;11.88;;;5.00;;
84140;SDS011;74257;52.540;13.416;2024-03-22T11:17:35;10.43;;;5.28;;
84140;SDS011;74257;52.540;13.416;2024-03-22T11:20:02;10.95;;;4.25;;
84140;SDS011;74257;52.540;13.416;2024-03-22T11:22:28;11.68;;;5.05;;
84140;SDS011;74257;52.540;13.416;2024-03-22T11:24:54;10.80;;;5.70;;
84140;SDS011;74257;52.540;13.416;2024-03-22T11:27:19;11.43;;;5.50;;
84140;SDS011;74257;52.540;13.416;2024-03-22T11:29:45;11.48;;;5.50;;
84140;SDS011;74257;52.540;13.416;2024-03-22T11:32:12;10.85;;;5.30;;
84140;SDS011;74257;52.540;13.416;2024-03-22T11:34:40;7.72;;;4.53;;
84140;SDS011;74257;52.540;13.416;2024-03-22T11:37:06;10.88;;;4.97;;
84140;SDS011;74257;52.540;13.416;2024-03-22T11:39:33;8.45;;;4.80;;
84140;SDS011;74257;52.540;13.416;2024-03-22T11:42:00;9.02;;;4.60;;
84140;SDS011;74257;52.540;13.416;2024-03-22T11:44:28;10.98;;;4.22;;
84140;SDS011;74257;52.540;13.416;2024-03-22T11:46:54;11.48;;;4.38;;
84140;SDS011;74257;52.540;13.416;2024-03-22T11:49:20;13.45;;;4.35;;
84140;SDS011;74257;52.540;13.416;2024-03-22T11:51:45;11.57;;;4.70;;
84140;SDS011;74257;52.540;13.416;2024-03-22T11:54:11;10.43;;;4.10;;
84140;SDS011;74257;52.540;13.416;2024-03-22T11:56:37;8.48;;;4.15;;
84140;SDS011;74257;52.540;13.416;2024-03-22T11:59:06;9.68;;;4.18;;
84140;SDS011;74257;52.540;13.416;2024-03-22T12:01:32;11.40;;;4.45;;
84140;SDS011;74257;52.540;13.416;2024-03-22T12:03:58;16.08;;;4.45;;
84140;SDS011;74257;52.540;13.416;2024-03-22T12:06:24;8.57;;;4.00;;
84140;SDS011;74257;52.540;13.416;2024-03-22T12:08:50;12.23;;;4.28;;
84140;SDS011;74257;52.540;13.416;2024-03-22T12:11:16;13.40;;;4.20;;
84140;SDS011;74257;52.540;13.416;2024-03-22T12:13:42;10.60;;;4.40;;
84140;SDS011;74257;52.540;13.416;2024-03-22T12:16:07;10.45;;;4.25;;
84140;SDS011;74257;52.540;13.416;2024-03-22T12:18:33;10.63;;;4.43;;
84140;SDS011;74257;52.540;13.416;2024-03-22T12:20:59;7.82;;;3.92;;
84140;SDS011;74257;52.540;13.416;2024-03-22T12:23:25;9.98;;;4.05;;
84140;SDS011;74257;52.540;13.416;2024-03-22T12:25:51;8.15;;;3.58;;
84140;SDS011;74257;52.540;13.416;2024-03-22T12:28:20;10.85;;;4.38;;
84140;SDS011;74257;52.540;13.416;2024-03-22T12:30:46;8.88;;;4.28;;
84140;SDS011;74257;52.540;13.416;2024-03-22T12:33:13;7.07;;;3.90;;
84140;SDS011;74257;52.540;13.416;2024-03-22T12:35:39;13.90;;;4.35;;
84140;SDS011;74257;52.540;13.416;2024-03-22T12:38:06;8.05;;;4.00;;
84140;SDS011;74257;52.540;13.416;2024-03-22T12:40:32;15.20;;;3.92;;
84140;SDS011;74257;52.540;13.416;2024-03-22T12:42:59;13.63;;;4.35;;
84140;SDS011;74257;52.540;13.416;2024-03-22T12:45:25;11.90;;;3.90;;
84140;SDS011;74257;52.540;13.416;2024-03-22T12:47:51;10.60;;;4.30;;
84140;SDS011;74257;52.540;13.416;2024-03-22T12:50:17;10.15;;;4.13;;
84140;SDS011;74257;52.540;13.416;2024-03-22T12:52:43;13.95;;;3.85;;
84140;SDS011;74257;52.540;13.416;2024-03-22T12:55:09;9.52;;;3.72;;
84140;SDS011;74257;52.540;13.416;2024-03-22T12:57:36;5.93;;;3.50;;
84140;SDS011;74257;52.540;13.416;2024-03-22T13:00:02;10.40;;;4.07;;
84140;SDS011;74257;52.540;13.416;2024-03-22T13:04:57;12.82;;;4.40;;
84140;SDS011;74257;52.540;13.416;2024-03-22T13:07:23;10.10;;;3.45;;
84140;SDS011;74257;52.540;13.416;2024-03-22T13:09:50;9.52;;;4.22;;
84140;SDS011;74257;52.540;13.416;2024-03-22T13:12:16;10.73;;;4.00;;
84140;SDS011;74257;52.540;13.416;2024-03-22T13:14:41;10.02;;;3.85;;
84140;SDS011;74257;52.540;13.416;2024-03-22T13:17:09;11.05;;;3.78;;
84140;SDS011;74257;52.540;13.416;2024-03-22T13:19:35;8.43;;;3.80;;
84140;SDS011;74257;52.540;13.416;2024-03-22T13:22:01;7.45;;;3.50;;
84140;SDS011;74257;52.540;13.416;2024-03-22T13:24:26;10.30;;;4.32;;
84140;SDS011;74257;52.540;13.416;2024-03-22T13:26:52;8.60;;;3.55;;
84140;SDS011;74257;52.540;13.416;2024-03-22T13:29:18;12.70;;;4.30;;
84140;SDS011;74257;52.540;13.416;2024-03-22T13:31:43;9.13;;;4.15;;
84140;SDS011;74257;52.540;13.416;2024-03-22T13:34:09;9.30;;;3.83;;
84140;SDS011;74257;52.540;13.416;2024-03-22T13:36:35;14.18;;;3.65;;
84140;SDS011;74257;52.540;13.416;2024-03-22T13:39:03;10.15;;;4.20;;
84140;SDS011;74257;52.540;13.416;2024-03-22T13:41:29;11.60;;;4.07;;
84140;SDS011;74257;52.540;13.416;2024-03-22T13:43:55;11.45;;;4.13;;
84140;SDS011;74257;52.540;13.416;2024-03-22T13:46:21;12.38;;;3.70;;
84140;SDS011;74257;52.540;13.416;2024-03-22T13:48:48;9.52;;;3.55;;
84140;SDS011;74257;52.540;13.416;2024-03-22T13:51:14;9.60;;;3.85;;
84140;SDS011;74257;52.540;13.416;2024-03-22T13:53:40;16.17;;;4.32;;
84140;SDS011;74257;52.540;13.416;2024-03-22T13:56:06;14.77;;;4.72;;
84140;SDS011;74257;52.540;13.416;2024-03-22T13:58:31;15.20;;;4.78;;
84140;SDS011;74257;52.540;13.416;2024-03-22T14:00:57;28.20;;;11.60;;
84140;SDS011;74257;52.540;13.416;2024-03-22T14:03:24;16.92;;;8.07;;
84140;SDS011;74257;52.540;13.416;2024-03-22T14:05:50;15.07;;;5.93;;
84140;SDS011;74257;52.540;13.416;2024-03-22T14:08:16;12.50;;;5.32;;
84140;SDS011;74257;52.540;13.416;2024-03-22T14:10:42;15.50;;;5.60;;
84140;SDS011;74257;52.540;13.416;2024-03-22T14:13:08;8.10;;;4.78;;
84140;SDS011;74257;52.540;13.416;2024-03-22T14:15:34;13.63;;;5.20;;
84140;SDS011;74257;52.540;13.416;2024-03-22T14:18:00;9.60;;;4.90;;
84140;SDS011;74257;52.540;13.416;2024-03-22T14:20:26;13.40;;;5.30;;
84140;SDS011;74257;52.540;13.416;2024-03-22T14:22:52;8.98;;;5.07;;
84140;SDS011;74257;52.540;13.416;2024-03-22T14:25:18;12.35;;;5.00;;
84140;SDS011;74257;52.540;13.416;2024-03-22T14:27:44;9.50;;;5.70;;
84140;SDS011;74257;52.540;13.416;2024-03-22T14:30:11;13.60;;;5.28;;
84140;SDS011;74257;52.540;13.416;2024-03-22T14:32:38;21.48;;;5.15;;
84140;SDS011;74257;52.540;13.416;2024-03-22T14:35:05;10.63;;;4.78;;
84140;SDS011;74257;52.540;13.416;2024-03-22T14:37:32;28.92;;;5.07;;